sensor_id;sensor_type;location;lat;lon;timestamp;P1;durP1;ratioP1;P2;durP2;ratioP2
21458;SDS011;10891;49.350;19.386;2022-07-29T00:01:46;11.50;;;8.38;;
21458;SDS011;10891;49.350;19.386;2022-07-29T00:04:13;11.38;;;8.13;;
21458;SDS011;10891;49.350;19.386;2022-07-29T00:06:41;9.32;;;7.53;;
21458;SDS011;10891;49.350;19.386;2022-07-29T00:09:09;12.27;;;7.75;;
21458;SDS011;10891;49.350;19.386;2022-07-29T00:11:36;11.70;;;7.70;;
21458;SDS011;10891;49.350;19.386;2022-07-29T00:14:03;11.45;;;8.50;;
21458;SDS011;10891;49.350;19.386;2022-07-29T00:16:30;9.75;;;7.85;;
21458;SDS011;10891;49.350;19.386;2022-07-29T00:18:57;15.05;;;8.32;;
21458;SDS011;10891;49.350;19.386;2022-07-29T00:21:24;11.82;;;8.55;;
21458;SDS011;10891;49.350;19.386;2022-07-29T00:23:53;10.57;;;7.90;;
21458;SDS011;10891;49.350;19.386;2022-07-29T00:26:20;10.45;;;7.50;;
21458;SDS011;10891;49.350;19.386;2022-07-29T00:28:47;10.43;;;7.78;;
21458;SDS011;10891;49.350;19.386;2022-07-29T00:31:14;9.25;;;7.85;;
21458;SDS011;10891;49.350;19.386;2022-07-29T00:33:41;9.13;;;8.18;;
21458;SDS011;10891;49.350;19.386;2022-07-29T00:36:09;13.57;;;8.25;;
21458;SDS011;10891;49.350;19.386;2022-07-29T00:38:35;10.90;;;8.60;;
21458;SDS011;10891;49.350;19.386;2022-07-29T00:41:03;9.48;;;7.97;;
21458;SDS011;10891;49.350;19.386;2022-07-29T00:43:30;12.30;;;8.82;;
21458;SDS011;10891;49.350;19.386;2022-07-29T00:45:58;11.70;;;8.77;;
21458;SDS011;10891;49.350;19.386;2022-07-29T00:48:25;15.05;;;8.25;;
21458;SDS011;10891;49.350;19.386;2022-07-29T00:50:52;12.43;;;8.35;;
21458;SDS011;10891;49.350;19.386;2022-07-29T00:53:19;15.65;;;7.95;;
21458;SDS011;10891;49.350;19.386;2022-07-29T00:55:46;11.50;;;7.50;;
21458;SDS011;10891;49.350;19.386;2022-07-29T00:58:15;8.95;;;7.82;;
21458;SDS011;10891;49.350;19.386;2022-07-29T01:00:42;11.48;;;8.73;;
21458;SDS011;10891;49.350;19.386;2022-07-29T01:03:09;10.80;;;7.97;;
21458;SDS011;10891;49.350;19.386;2022-07-29T01:05:37;8.25;;;7.40;;
21458;SDS011;10891;49.350;19.386;2022-07-29T01:08:05;9.43;;;8.02;;
21458;SDS011;10891;49.350;19.386;2022-07-29T01:10:32;9.80;;;7.82;;
21458;SDS011;10891;49.350;19.386;2022-07-29T01:13:01;9.30;;;8.27;;
21458;SDS011;10891;49.350;19.386;2022-07-29T01:15:30;11.90;;;7.93;;
21458;SDS011;10891;49.350;19.386;2022-07-29T01:17:59;13.40;;;8.55;;
21458;SDS011;10891;49.350;19.386;2022-07-29T01:20:31;12.07;;;8.55;;
21458;SDS011;10891;49.350;19.386;2022-07-29T01:25:53;11.05;;;8.05;;
21458;SDS011;10891;49.350;19.386;2022-07-29T01:28:43;13.07;;;8.50;;
21458;SDS011;10891;49.350;19.386;2022-07-29T01:31:12;12.27;;;8.50;;
21458;SDS011;10891;49.350;19.386;2022-07-29T01:33:41;10.55;;;8.40;;
21458;SDS011;10891;49.350;19.386;2022-07-29T01:36:16;15.35;;;9.02;;
21458;SDS011;10891;49.350;19.386;2022-07-29T01:38:45;14.02;;;8.50;;
21458;SDS011;10891;49.350;19.386;2022-07-29T01:41:15;11.18;;;7.30;;
21458;SDS011;10891;49.350;19.386;2022-07-29T01:43:53;13.77;;;7.88;;
21458;SDS011;10891;49.350;19.386;2022-07-29T01:46:23;9.75;;;8.10;;
21458;SDS011;10891;49.350;19.386;2022-07-29T01:48:52;14.15;;;8.68;;
21458;SDS011;10891;49.350;19.386;2022-07-29T01:51:21;12.30;;;7.85;;
21458;SDS011;10891;49.350;19.386;2022-07-29T01:53:53;11.02;;;8.07;;
21458;SDS011;10891;49.350;19.386;2022-07-29T01:56:22;12.65;;;8.30;;
21458;SDS011;10891;49.350;19.386;2022-07-29T01:58:51;14.73;;;8.63;;
21458;SDS011;10891;49.350;19.386;2022-07-29T02:01:19;14.15;;;9.07;;
21458;SDS011;10891;49.350;19.386;2022-07-29T02:03:47;11.68;;;7.88;;
21458;SDS011;10891;49.350;19.386;2022-07-29T02:06:16;10.80;;;8.40;;
21458;SDS011;10891;49.350;19.386;2022-07-29T02:08:45;13.35;;;9.57;;
21458;SDS011;10891;49.350;19.386;2022-07-29T02:11:13;13.13;;;8.57;;
21458;SDS011;10891;49.350;19.386;2022-07-29T02:13:41;12.10;;;8.70;;
21458;SDS011;10891;49.350;19.386;2022-07-29T02:16:10;13.15;;;8.25;;
21458;SDS011;10891;49.350;19.386;2022-07-29T02:18:39;11.60;;;8.32;;
21458;SDS011;10891;49.350;19.386;2022-07-29T02:21:07;11.25;;;7.55;;
21458;SDS011;10891;49.350;19.386;2022-07-29T02:23:35;15.20;;;7.28;;
21458;SDS011;10891;49.350;19.386;2022-07-29T02:26:04;10.07;;;7.03;;
21458;SDS011;10891;49.350;19.386;2022-07-29T02:28:32;9.48;;;6.72;;
21458;SDS011;10891;49.350;19.386;2022-07-29T02:31:00;16.30;;;7.38;;
21458;SDS011;10891;49.350;19.386;2022-07-29T02:33:30;9.57;;;7.20;;
21458;SDS011;10891;49.350;19.386;2022-07-29T02:35:57;10.65;;;7.47;;
21458;SDS011;10891;49.350;19.386;2022-07-29T02:38:25;10.20;;;7.57;;
21458;SDS011;10891;49.350;19.386;2022-07-29T02:41:12;11.43;;;7.90;;
21458;SDS011;10891;49.350;19.386;2022-07-29T02:43:40;9.63;;;8.13;;
21458;SDS011;10891;49.350;19.386;2022-07-29T02:46:12;9.23;;;7.22;;
21458;SDS011;10891;49.350;19.386;2022-07-29T02:48:43;11.57;;;6.97;;
21458;SDS011;10891;49.350;19.386;2022-07-29T02:51:12;9.40;;;7.30;;
21458;SDS011;10891;49.350;19.386;2022-07-29T02:53:40;9.15;;;7.72;;
21458;SDS011;10891;49.350;19.386;2022-07-29T02:56:10;13.32;;;7.50;;
21458;SDS011;10891;49.350;19.386;2022-07-29T02:58:38;12.75;;;8.05;;
21458;SDS011;10891;49.350;19.386;2022-07-29T03:01:08;11.07;;;8.18;;
21458;SDS011;10891;49.350;19.386;2022-07-29T03:03:36;13.23;;;7.88;;
21458;SDS011;10891;49.350;19.386;2022-07-29T03:06:05;11.90;;;8.40;;
21458;SDS011;10891;49.350;19.386;2022-07-29T03:08:34;14.07;;;9.35;;
21458;SDS011;10891;49.350;19.386;2022-07-29T03:11:01;10.93;;;8.32;;
21458;SDS011;10891;49.350;19.386;2022-07-29T03:13:29;10.75;;;8.50;;
21458;SDS011;10891;49.350;19.386;2022-07-29T03:15:56;11.95;;;9.05;;
21458;SDS011;10891;49.350;19.386;2022-07-29T03:18:23;11.23;;;8.68;;
21458;SDS011;10891;49.350;19.386;2022-07-29T03:20:51;10.18;;;8.45;;
21458;SDS011;10891;49.350;19.386;2022-07-29T03:23:20;15.60;;;9.00;;
21458;SDS011;10891;49.350;19.386;2022-07-29T03:25:48;10.25;;;8.65;;
21458;SDS011;10891;49.350;19.386;2022-07-29T03:28:16;11.57;;;8.88;;
21458;SDS011;10891;49.350;19.386;2022-07-29T03:30:43;16.50;;;9.68;;
21458;SDS011;10891;49.350;19.386;2022-07-29T03:33:10;15.27;;;9.15;;
21458;SDS011;10891;49.350;19.386;2022-07-29T03:35:37;12.48;;;8.82;;
21458;SDS011;10891;49.350;19.386;2022-07-29T03:38:04;14.95;;;8.85;;
21458;SDS011;10891;49.350;19.386;2022-07-29T03:40:34;12.15;;;9.05;;
21458;SDS011;10891;49.350;19.386;2022-07-29T03:43:02;15.55;;;9.07;;
21458;SDS011;10891;49.350;19.386;2022-07-29T03:45:30;13.13;;;9.63;;
21458;SDS011;10891;49.350;19.386;2022-07-29T03:47:59;17.67;;;8.63;;
21458;SDS011;10891;49.350;19.386;2022-07-29T03:50:27;11.20;;;8.52;;
21458;SDS011;10891;49.350;19.386;2022-07-29T03:52:55;13.02;;;8.70;;
21458;SDS011;10891;49.350;19.386;2022-07-29T03:55:22;12.00;;;8.70;;
21458;SDS011;10891;49.350;19.386;2022-07-29T03:57:51;20.77;;;8.73;;
21458;SDS011;10891;49.350;19.386;2022-07-29T04:00:18;14.27;;;8.30;;
21458;SDS011;10891;49.350;19.386;2022-07-29T04:02:46;14.82;;;8.05;;
21458;SDS011;10891;49.350;19.386;2022-07-29T04:05:14;13.80;;;6.95;;
21458;SDS011;10891;49.350;19.386;2022-07-29T04:07:43;19.27;;;7.05;;
21458;SDS011;10891;49.350;19.386;2022-07-29T04:10:10;18.17;;;6.45;;
21458;SDS011;10891;49.350;19.386;2022-07-29T04:12:37;9.63;;;5.80;;
21458;SDS011;10891;49.350;19.386;2022-07-29T04:15:07;12.18;;;5.40;;
21458;SDS011;10891;49.350;19.386;2022-07-29T04:17:34;11.20;;;5.80;;
21458;SDS011;10891;49.350;19.386;2022-07-29T04:20:01;10.48;;;5.20;;
21458;SDS011;10891;49.350;19.386;2022-07-29T04:22:29;8.68;;;5.15;;
21458;SDS011;10891;49.350;19.386;2022-07-29T04:24:56;10.55;;;5.30;;
21458;SDS011;10891;49.350;19.386;2022-07-29T04:27:24;7.13;;;4.72;;
21458;SDS011;10891;49.350;19.386;2022-07-29T04:29:51;5.55;;;4.82;;
21458;SDS011;10891;49.350;19.386;2022-07-29T04:32:20;8.85;;;4.80;;
21458;SDS011;10891;49.350;19.386;2022-07-29T04:34:47;8.60;;;5.57;;
21458;SDS011;10891;49.350;19.386;2022-07-29T04:49:38;6.82;;;5.15;;
21458;SDS011;10891;49.350;19.386;2022-07-29T04:52:05;7.60;;;4.85;;
21458;SDS011;10891;49.350;19.386;2022-07-29T04:54:32;9.50;;;5.40;;
21458;SDS011;10891;49.350;19.386;2022-07-29T04:56:59;7.47;;;4.55;;
21458;SDS011;10891;49.350;19.386;2022-07-29T04:59:26;8.20;;;5.03;;
21458;SDS011;10891;49.350;19.386;2022-07-29T05:01:52;8.00;;;4.57;;
21458;SDS011;10891;49.350;19.386;2022-07-29T05:04:19;7.35;;;4.72;;
21458;SDS011;10891;49.350;19.386;2022-07-29T05:06:48;7.88;;;4.55;;
21458;SDS011;10891;49.350;19.386;2022-07-29T05:09:14;10.38;;;4.90;;
21458;SDS011;10891;49.350;19.386;2022-07-29T05:11:41;9.25;;;5.30;;
21458;SDS011;10891;49.350;19.386;2022-07-29T05:14:09;11.38;;;5.10;;
21458;SDS011;10891;49.350;19.386;2022-07-29T05:16:36;8.02;;;4.75;;
21458;SDS011;10891;49.350;19.386;2022-07-29T05:19:05;15.38;;;4.90;;
21458;SDS011;10891;49.350;19.386;2022-07-29T05:21:32;12.00;;;5.70;;
21458;SDS011;10891;49.350;19.386;2022-07-29T05:24:00;9.05;;;5.07;;
21458;SDS011;10891;49.350;19.386;2022-07-29T05:26:27;6.15;;;4.65;;
21458;SDS011;10891;49.350;19.386;2022-07-29T05:28:54;12.93;;;4.68;;
21458;SDS011;10891;49.350;19.386;2022-07-29T05:31:23;15.27;;;5.63;;
21458;SDS011;10891;49.350;19.386;2022-07-29T05:33:50;12.68;;;6.13;;
21458;SDS011;10891;49.350;19.386;2022-07-29T05:36:17;13.98;;;5.88;;
21458;SDS011;10891;49.350;19.386;2022-07-29T05:38:44;11.38;;;6.97;;
21458;SDS011;10891;49.350;19.386;2022-07-29T05:41:12;16.10;;;6.65;;
21458;SDS011;10891;49.350;19.386;2022-07-29T05:43:39;13.63;;;6.57;;
21458;SDS011;10891;49.350;19.386;2022-07-29T05:46:06;10.10;;;5.63;;
21458;SDS011;10891;49.350;19.386;2022-07-29T05:48:34;14.32;;;5.28;;
21458;SDS011;10891;49.350;19.386;2022-07-29T05:51:01;15.63;;;5.63;;
21458;SDS011;10891;49.350;19.386;2022-07-29T05:53:28;13.48;;;5.50;;
21458;SDS011;10891;49.350;19.386;2022-07-29T05:55:55;9.73;;;5.25;;
21458;SDS011;10891;49.350;19.386;2022-07-29T05:58:23;6.97;;;5.20;;
21458;SDS011;10891;49.350;19.386;2022-07-29T06:00:50;9.32;;;4.80;;
21458;SDS011;10891;49.350;19.386;2022-07-29T06:03:17;12.98;;;5.18;;
21458;SDS011;10891;49.350;19.386;2022-07-29T06:05:44;10.05;;;5.03;;
21458;SDS011;10891;49.350;19.386;2022-07-29T06:08:11;9.00;;;5.13;;
21458;SDS011;10891;49.350;19.386;2022-07-29T06:10:37;11.13;;;5.57;;
21458;SDS011;10891;49.350;19.386;2022-07-29T06:13:04;14.68;;;5.80;;
21458;SDS011;10891;49.350;19.386;2022-07-29T06:15:32;11.02;;;5.65;;
21458;SDS011;10891;49.350;19.386;2022-07-29T06:17:59;8.38;;;5.15;;
21458;SDS011;10891;49.350;19.386;2022-07-29T06:20:27;7.90;;;5.30;;
21458;SDS011;10891;49.350;19.386;2022-07-29T06:22:55;11.00;;;5.18;;
21458;SDS011;10891;49.350;19.386;2022-07-29T06:25:22;9.95;;;5.65;;
21458;SDS011;10891;49.350;19.386;2022-07-29T06:27:49;9.73;;;5.43;;
21458;SDS011;10891;49.350;19.386;2022-07-29T06:30:15;9.05;;;5.22;;
21458;SDS011;10891;49.350;19.386;2022-07-29T06:32:44;6.45;;;5.07;;
21458;SDS011;10891;49.350;19.386;2022-07-29T06:35:11;6.82;;;5.22;;
21458;SDS011;10891;49.350;19.386;2022-07-29T06:37:38;8.00;;;4.93;;
21458;SDS011;10891;49.350;19.386;2022-07-29T06:40:05;7.35;;;5.38;;
21458;SDS011;10891;49.350;19.386;2022-07-29T06:42:49;5.18;;;4.65;;
21458;SDS011;10891;49.350;19.386;2022-07-29T06:45:16;8.13;;;5.10;;
21458;SDS011;10891;49.350;19.386;2022-07-29T06:47:45;13.48;;;5.75;;
21458;SDS011;10891;49.350;19.386;2022-07-29T06:50:13;8.13;;;4.88;;
21458;SDS011;10891;49.350;19.386;2022-07-29T06:52:40;8.68;;;5.55;;
21458;SDS011;10891;49.350;19.386;2022-07-29T06:55:07;9.57;;;6.00;;
21458;SDS011;10891;49.350;19.386;2022-07-29T06:57:34;7.05;;;5.30;;
21458;SDS011;10891;49.350;19.386;2022-07-29T07:00:02;6.60;;;5.13;;
21458;SDS011;10891;49.350;19.386;2022-07-29T07:02:30;6.85;;;5.20;;
21458;SDS011;10891;49.350;19.386;2022-07-29T07:04:58;11.50;;;5.32;;
21458;SDS011;10891;49.350;19.386;2022-07-29T07:07:25;11.95;;;5.10;;
21458;SDS011;10891;49.350;19.386;2022-07-29T07:09:52;6.50;;;4.88;;
21458;SDS011;10891;49.350;19.386;2022-07-29T07:12:20;8.20;;;4.72;;
21458;SDS011;10891;49.350;19.386;2022-07-29T07:14:47;7.38;;;4.70;;
21458;SDS011;10891;49.350;19.386;2022-07-29T07:17:14;7.65;;;4.95;;
21458;SDS011;10891;49.350;19.386;2022-07-29T07:19:41;9.32;;;4.90;;
21458;SDS011;10891;49.350;19.386;2022-07-29T07:22:09;8.88;;;5.07;;
21458;SDS011;10891;49.350;19.386;2022-07-29T07:24:36;7.70;;;4.60;;
21458;SDS011;10891;49.350;19.386;2022-07-29T07:27:03;9.13;;;4.22;;
21458;SDS011;10891;49.350;19.386;2022-07-29T07:29:29;6.78;;;4.95;;
21458;SDS011;10891;49.350;19.386;2022-07-29T07:31:57;7.85;;;4.55;;
21458;SDS011;10891;49.350;19.386;2022-07-29T07:34:24;8.70;;;5.05;;
21458;SDS011;10891;49.350;19.386;2022-07-29T07:36:50;8.20;;;5.20;;
21458;SDS011;10891;49.350;19.386;2022-07-29T07:39:19;8.70;;;4.95;;
21458;SDS011;10891;49.350;19.386;2022-07-29T07:41:45;7.38;;;4.97;;
21458;SDS011;10891;49.350;19.386;2022-07-29T07:44:12;9.27;;;5.38;;
21458;SDS011;10891;49.350;19.386;2022-07-29T07:46:39;6.95;;;4.80;;
21458;SDS011;10891;49.350;19.386;2022-07-29T07:49:06;7.00;;;4.40;;
21458;SDS011;10891;49.350;19.386;2022-07-29T07:51:33;7.57;;;4.53;;
21458;SDS011;10891;49.350;19.386;2022-07-29T07:54:00;18.13;;;5.05;;
21458;SDS011;10891;49.350;19.386;2022-07-29T07:56:28;7.05;;;5.07;;
21458;SDS011;10891;49.350;19.386;2022-07-29T07:58:55;8.80;;;5.82;;
21458;SDS011;10891;49.350;19.386;2022-07-29T08:01:21;6.82;;;5.10;;
21458;SDS011;10891;49.350;19.386;2022-07-29T08:03:49;6.53;;;5.18;;
21458;SDS011;10891;49.350;19.386;2022-07-29T08:06:15;11.93;;;5.32;;
21458;SDS011;10891;49.350;19.386;2022-07-29T08:08:42;8.82;;;4.72;;
21458;SDS011;10891;49.350;19.386;2022-07-29T08:11:09;6.47;;;4.82;;
21458;SDS011;10891;49.350;19.386;2022-07-29T08:13:39;7.93;;;5.32;;
21458;SDS011;10891;49.350;19.386;2022-07-29T08:16:06;7.40;;;4.82;;
21458;SDS011;10891;49.350;19.386;2022-07-29T08:18:40;7.55;;;4.55;;
21458;SDS011;10891;49.350;19.386;2022-07-29T08:21:08;5.80;;;4.35;;
21458;SDS011;10891;49.350;19.386;2022-07-29T08:23:35;11.88;;;4.95;;
21458;SDS011;10891;49.350;19.386;2022-07-29T08:26:04;7.32;;;4.35;;
21458;SDS011;10891;49.350;19.386;2022-07-29T08:28:36;5.90;;;4.80;;
21458;SDS011;10891;49.350;19.386;2022-07-29T08:31:05;5.90;;;4.20;;
21458;SDS011;10891;49.350;19.386;2022-07-29T08:33:32;14.05;;;5.30;;
21458;SDS011;10891;49.350;19.386;2022-07-29T08:35:59;9.75;;;4.95;;
21458;SDS011;10891;49.350;19.386;2022-07-29T08:38:26;6.35;;;4.50;;
21458;SDS011;10891;49.350;19.386;2022-07-29T08:40:53;6.20;;;4.13;;
21458;SDS011;10891;49.350;19.386;2022-07-29T08:43:20;7.03;;;4.32;;
21458;SDS011;10891;49.350;19.386;2022-07-29T08:45:49;7.35;;;4.85;;
21458;SDS011;10891;49.350;19.386;2022-07-29T08:48:17;6.55;;;4.60;;
21458;SDS011;10891;49.350;19.386;2022-07-29T08:50:46;8.48;;;4.32;;
21458;SDS011;10891;49.350;19.386;2022-07-29T08:53:15;6.80;;;4.13;;
21458;SDS011;10891;49.350;19.386;2022-07-29T08:55:44;6.70;;;4.35;;
21458;SDS011;10891;49.350;19.386;2022-07-29T08:58:13;6.72;;;4.32;;
21458;SDS011;10891;49.350;19.386;2022-07-29T09:00:41;6.13;;;4.00;;
21458;SDS011;10891;49.350;19.386;2022-07-29T09:03:12;5.28;;;4.40;;
21458;SDS011;10891;49.350;19.386;2022-07-29T09:05:43;6.85;;;4.60;;
21458;SDS011;10891;49.350;19.386;2022-07-29T09:08:11;5.65;;;4.22;;
21458;SDS011;10891;49.350;19.386;2022-07-29T09:10:39;6.53;;;4.10;;
21458;SDS011;10891;49.350;19.386;2022-07-29T09:13:06;8.35;;;4.35;;
21458;SDS011;10891;49.350;19.386;2022-07-29T09:15:33;6.28;;;4.22;;
21458;SDS011;10891;49.350;19.386;2022-07-29T09:18:00;6.10;;;4.18;;
21458;SDS011;10891;49.350;19.386;2022-07-29T09:20:28;6.22;;;4.10;;
21458;SDS011;10891;49.350;19.386;2022-07-29T09:23:15;5.65;;;4.20;;
21458;SDS011;10891;49.350;19.386;2022-07-29T09:25:42;5.50;;;4.00;;
21458;SDS011;10891;49.350;19.386;2022-07-29T09:28:10;7.10;;;4.13;;
21458;SDS011;10891;49.350;19.386;2022-07-29T09:30:41;6.60;;;4.00;;
21458;SDS011;10891;49.350;19.386;2022-07-29T09:33:17;7.28;;;4.38;;
21458;SDS011;10891;49.350;19.386;2022-07-29T09:35:45;5.07;;;3.75;;
21458;SDS011;10891;49.350;19.386;2022-07-29T09:38:24;6.03;;;4.20;;
21458;SDS011;10891;49.350;19.386;2022-07-29T09:40:55;4.72;;;3.85;;
21458;SDS011;10891;49.350;19.386;2022-07-29T09:43:23;6.00;;;3.72;;
21458;SDS011;10891;49.350;19.386;2022-07-29T09:45:50;5.57;;;3.83;;
21458;SDS011;10891;49.350;19.386;2022-07-29T09:48:17;5.03;;;3.95;;
21458;SDS011;10891;49.350;19.386;2022-07-29T09:50:47;4.85;;;4.03;;
21458;SDS011;10891;49.350;19.386;2022-07-29T09:53:29;6.68;;;4.18;;
21458;SDS011;10891;49.350;19.386;2022-07-29T09:55:57;4.90;;;4.20;;
21458;SDS011;10891;49.350;19.386;2022-07-29T09:58:24;4.63;;;3.85;;
21458;SDS011;10891;49.350;19.386;2022-07-29T10:00:52;7.00;;;4.18;;
21458;SDS011;10891;49.350;19.386;2022-07-29T10:03:21;6.97;;;4.35;;
21458;SDS011;10891;49.350;19.386;2022-07-29T10:06:05;7.13;;;4.07;;
21458;SDS011;10891;49.350;19.386;2022-07-29T10:08:33;7.28;;;4.07;;
21458;SDS011;10891;49.350;19.386;2022-07-29T10:11:11;7.95;;;4.30;;
21458;SDS011;10891;49.350;19.386;2022-07-29T10:13:39;7.07;;;3.78;;
21458;SDS011;10891;49.350;19.386;2022-07-29T10:16:07;5.00;;;4.00;;
21458;SDS011;10891;49.350;19.386;2022-07-29T10:18:34;4.13;;;3.63;;
21458;SDS011;10891;49.350;19.386;2022-07-29T10:21:05;5.60;;;3.10;;
21458;SDS011;10891;49.350;19.386;2022-07-29T10:23:32;5.45;;;3.53;;
21458;SDS011;10891;49.350;19.386;2022-07-29T10:26:00;5.13;;;3.28;;
21458;SDS011;10891;49.350;19.386;2022-07-29T10:28:29;8.32;;;3.50;;
21458;SDS011;10891;49.350;19.386;2022-07-29T10:30:59;11.55;;;3.63;;
21458;SDS011;10891;49.350;19.386;2022-07-29T10:33:33;8.05;;;3.25;;
21458;SDS011;10891;49.350;19.386;2022-07-29T10:36:24;6.22;;;3.15;;
21458;SDS011;10891;49.350;19.386;2022-07-29T10:39:05;5.45;;;3.22;;
21458;SDS011;10891;49.350;19.386;2022-07-29T10:41:46;4.15;;;2.63;;
21458;SDS011;10891;49.350;19.386;2022-07-29T10:44:22;4.35;;;2.95;;
21458;SDS011;10891;49.350;19.386;2022-07-29T10:46:50;5.18;;;3.10;;
21458;SDS011;10891;49.350;19.386;2022-07-29T10:49:18;4.35;;;2.97;;
21458;SDS011;10891;49.350;19.386;2022-07-29T10:52:01;5.03;;;3.03;;
21458;SDS011;10891;49.350;19.386;2022-07-29T10:54:44;3.53;;;3.20;;
21458;SDS011;10891;49.350;19.386;2022-07-29T10:57:13;6.00;;;3.30;;
21458;SDS011;10891;49.350;19.386;2022-07-29T10:59:41;5.70;;;3.05;;
21458;SDS011;10891;49.350;19.386;2022-07-29T11:05:07;5.55;;;3.60;;
21458;SDS011;10891;49.350;19.386;2022-07-29T11:07:37;6.78;;;3.47;;
21458;SDS011;10891;49.350;19.386;2022-07-29T11:10:21;5.95;;;3.20;;
21458;SDS011;10891;49.350;19.386;2022-07-29T11:12:49;4.80;;;3.30;;
21458;SDS011;10891;49.350;19.386;2022-07-29T11:15:17;4.53;;;3.08;;
21458;SDS011;10891;49.350;19.386;2022-07-29T11:18:05;3.67;;;2.75;;
21458;SDS011;10891;49.350;19.386;2022-07-29T11:20:33;5.78;;;2.95;;
21458;SDS011;10891;49.350;19.386;2022-07-29T11:23:03;7.00;;;3.40;;
21458;SDS011;10891;49.350;19.386;2022-07-29T11:25:45;8.57;;;3.38;;
21458;SDS011;10891;49.350;19.386;2022-07-29T11:28:32;4.03;;;3.00;;
21458;SDS011;10891;49.350;19.386;2022-07-29T11:31:01;8.80;;;3.35;;
21458;SDS011;10891;49.350;19.386;2022-07-29T11:33:29;4.00;;;3.15;;
21458;SDS011;10891;49.350;19.386;2022-07-29T11:36:06;5.47;;;3.58;;
21458;SDS011;10891;49.350;19.386;2022-07-29T11:38:36;7.28;;;3.10;;
21458;SDS011;10891;49.350;19.386;2022-07-29T11:41:19;7.45;;;3.40;;
21458;SDS011;10891;49.350;19.386;2022-07-29T11:43:47;3.90;;;2.55;;
21458;SDS011;10891;49.350;19.386;2022-07-29T11:46:16;4.32;;;3.05;;
21458;SDS011;10891;49.350;19.386;2022-07-29T11:49:04;6.13;;;3.30;;
21458;SDS011;10891;49.350;19.386;2022-07-29T11:51:32;5.10;;;3.25;;
21458;SDS011;10891;49.350;19.386;2022-07-29T11:54:00;6.82;;;3.10;;
21458;SDS011;10891;49.350;19.386;2022-07-29T11:56:29;3.72;;;2.70;;
21458;SDS011;10891;49.350;19.386;2022-07-29T11:59:04;3.95;;;2.60;;
21458;SDS011;10891;49.350;19.386;2022-07-29T12:01:34;7.05;;;3.47;;
21458;SDS011;10891;49.350;19.386;2022-07-29T12:04:04;13.23;;;7.53;;
21458;SDS011;10891;49.350;19.386;2022-07-29T12:06:33;9.30;;;3.30;;
21458;SDS011;10891;49.350;19.386;2022-07-29T12:09:03;3.45;;;2.92;;
21458;SDS011;10891;49.350;19.386;2022-07-29T12:11:33;7.00;;;3.75;;
21458;SDS011;10891;49.350;19.386;2022-07-29T12:14:00;5.32;;;3.40;;
21458;SDS011;10891;49.350;19.386;2022-07-29T12:16:34;6.22;;;3.15;;
21458;SDS011;10891;49.350;19.386;2022-07-29T12:19:02;6.32;;;2.92;;
21458;SDS011;10891;49.350;19.386;2022-07-29T12:21:35;3.33;;;2.55;;
21458;SDS011;10891;49.350;19.386;2022-07-29T12:24:11;7.70;;;2.50;;
21458;SDS011;10891;49.350;19.386;2022-07-29T12:26:48;6.10;;;2.83;;
21458;SDS011;10891;49.350;19.386;2022-07-29T12:29:15;8.70;;;3.22;;
21458;SDS011;10891;49.350;19.386;2022-07-29T12:31:43;11.18;;;4.68;;
21458;SDS011;10891;49.350;19.386;2022-07-29T12:34:11;6.20;;;3.05;;
21458;SDS011;10891;49.350;19.386;2022-07-29T12:36:39;5.22;;;2.90;;
21458;SDS011;10891;49.350;19.386;2022-07-29T12:39:07;6.13;;;3.47;;
21458;SDS011;10891;49.350;19.386;2022-07-29T12:41:36;5.22;;;3.30;;
21458;SDS011;10891;49.350;19.386;2022-07-29T12:44:04;5.28;;;3.90;;
21458;SDS011;10891;49.350;19.386;2022-07-29T12:46:34;4.68;;;2.95;;
21458;SDS011;10891;49.350;19.386;2022-07-29T12:49:01;3.85;;;2.58;;
21458;SDS011;10891;49.350;19.386;2022-07-29T12:51:29;6.35;;;2.60;;
21458;SDS011;10891;49.350;19.386;2022-07-29T12:54:04;5.57;;;2.75;;
21458;SDS011;10891;49.350;19.386;2022-07-29T12:56:33;3.97;;;3.10;;
21458;SDS011;10891;49.350;19.386;2022-07-29T12:59:11;4.97;;;2.72;;
21458;SDS011;10891;49.350;19.386;2022-07-29T13:01:39;8.93;;;3.10;;
21458;SDS011;10891;49.350;19.386;2022-07-29T13:04:06;5.18;;;2.70;;
21458;SDS011;10891;49.350;19.386;2022-07-29T13:06:34;6.68;;;3.17;;
21458;SDS011;10891;49.350;19.386;2022-07-29T13:09:04;8.05;;;3.45;;
21458;SDS011;10891;49.350;19.386;2022-07-29T13:11:34;4.15;;;2.92;;
21458;SDS011;10891;49.350;19.386;2022-07-29T13:14:03;7.38;;;3.95;;
21458;SDS011;10891;49.350;19.386;2022-07-29T13:16:32;11.32;;;3.70;;
21458;SDS011;10891;49.350;19.386;2022-07-29T13:19:05;4.18;;;3.15;;
21458;SDS011;10891;49.350;19.386;2022-07-29T13:21:34;9.05;;;3.05;;
21458;SDS011;10891;49.350;19.386;2022-07-29T13:24:02;6.53;;;2.63;;
21458;SDS011;10891;49.350;19.386;2022-07-29T13:26:29;11.63;;;3.95;;
21458;SDS011;10891;49.350;19.386;2022-07-29T13:28:56;5.40;;;2.80;;
21458;SDS011;10891;49.350;19.386;2022-07-29T13:31:24;8.90;;;3.25;;
21458;SDS011;10891;49.350;19.386;2022-07-29T13:33:52;11.52;;;5.93;;
21458;SDS011;10891;49.350;19.386;2022-07-29T13:36:19;7.72;;;3.13;;
21458;SDS011;10891;49.350;19.386;2022-07-29T13:38:46;6.00;;;2.78;;
21458;SDS011;10891;49.350;19.386;2022-07-29T13:41:13;4.70;;;2.83;;
21458;SDS011;10891;49.350;19.386;2022-07-29T13:43:40;5.20;;;2.78;;
21458;SDS011;10891;49.350;19.386;2022-07-29T13:46:07;5.57;;;3.05;;
21458;SDS011;10891;49.350;19.386;2022-07-29T13:48:34;6.35;;;2.60;;
21458;SDS011;10891;49.350;19.386;2022-07-29T13:51:02;4.63;;;2.42;;
21458;SDS011;10891;49.350;19.386;2022-07-29T13:53:29;3.85;;;2.42;;
21458;SDS011;10891;49.350;19.386;2022-07-29T13:55:57;3.70;;;2.30;;
21458;SDS011;10891;49.350;19.386;2022-07-29T13:58:24;4.47;;;2.78;;
21458;SDS011;10891;49.350;19.386;2022-07-29T14:00:51;4.80;;;2.95;;
21458;SDS011;10891;49.350;19.386;2022-07-29T14:03:18;6.70;;;3.20;;
21458;SDS011;10891;49.350;19.386;2022-07-29T14:05:45;6.10;;;3.90;;
21458;SDS011;10891;49.350;19.386;2022-07-29T14:08:14;4.35;;;3.38;;
21458;SDS011;10891;49.350;19.386;2022-07-29T14:10:41;8.40;;;3.63;;
21458;SDS011;10891;49.350;19.386;2022-07-29T14:13:08;7.80;;;3.65;;
21458;SDS011;10891;49.350;19.386;2022-07-29T14:15:35;5.50;;;3.15;;
21458;SDS011;10891;49.350;19.386;2022-07-29T14:18:02;3.97;;;2.80;;
21458;SDS011;10891;49.350;19.386;2022-07-29T14:20:30;8.35;;;3.10;;
21458;SDS011;10891;49.350;19.386;2022-07-29T14:22:57;7.47;;;4.18;;
21458;SDS011;10891;49.350;19.386;2022-07-29T14:25:26;4.45;;;3.25;;
21458;SDS011;10891;49.350;19.386;2022-07-29T14:27:53;4.53;;;3.20;;
21458;SDS011;10891;49.350;19.386;2022-07-29T14:30:20;5.20;;;2.83;;
21458;SDS011;10891;49.350;19.386;2022-07-29T14:32:47;5.07;;;2.92;;
21458;SDS011;10891;49.350;19.386;2022-07-29T14:35:14;5.55;;;2.28;;
21458;SDS011;10891;49.350;19.386;2022-07-29T14:37:41;5.15;;;3.22;;
21458;SDS011;10891;49.350;19.386;2022-07-29T14:40:08;3.65;;;2.50;;
21458;SDS011;10891;49.350;19.386;2022-07-29T14:42:37;4.32;;;2.75;;
21458;SDS011;10891;49.350;19.386;2022-07-29T14:45:05;5.35;;;3.28;;
21458;SDS011;10891;49.350;19.386;2022-07-29T14:47:33;3.75;;;2.47;;
21458;SDS011;10891;49.350;19.386;2022-07-29T14:50:00;3.50;;;3.20;;
21458;SDS011;10891;49.350;19.386;2022-07-29T14:52:27;4.68;;;3.30;;
21458;SDS011;10891;49.350;19.386;2022-07-29T14:54:54;4.72;;;2.90;;
21458;SDS011;10891;49.350;19.386;2022-07-29T14:57:21;2.75;;;2.03;;
21458;SDS011;10891;49.350;19.386;2022-07-29T14:59:49;4.72;;;2.38;;